M I D A S
Marine Information and Data Acquisition System
Tripno 1405 of the Zeeleeuw from 2007-10-19 08:22:55 to 2007-10-19 12:29:27
Back to CruiseResearch ActivitiesStationsMapUnderway DataData graphs

EquipmentUnitsComment
TimeDGPSUTC
LatitudeDGPSDM.mWGS84
LongitudeDGPSDM.mWGS84
HeadingGyrodeg 
SOGDGPSknotsSpeed over ground
COGDGPSdegCourse over ground
DepthEcho soundermeters200 kHz
Missing or incorrect values are displayed as -999
Navigation data collected by the RV Zeeleeuw from 2007-10-19 06:05:42 to 2007-10-19 12:38:35
Time Latitude Longitude Heading SOG COG Depth
2007-10-19 06:06:50 51°13.618 2°56.02 114.8 4.4 295 -999
2007-10-19 06:07:50 51°13.659 2°55.893 117.8 5.8 297 -999
2007-10-19 06:08:50 51°13.684 2°55.781 100.3 3.6 282 11.6
2007-10-19 06:09:48 51°13.686 2°55.719 74.7 0.8 267 14.4
2007-10-19 06:10:46 51°13.709 2°55.724 2.7 2.9 353 13.7
2007-10-19 06:11:46 51°13.805 2°55.658 338.6 8.2 335 12.1
2007-10-19 06:12:46 51°13.943 2°55.566 340.2 9.2 337 12
2007-10-19 06:13:48 51°14.088 2°55.461 336.8 9.2 332 -999
2007-10-19 06:14:50 51°14.223 2°55.329 326.5 9.2 322 4.7
2007-10-19 06:15:48 51°14.314 2°55.138 305.2 10 302 12.2
2007-10-19 06:16:47 51°14.414 2°54.906 306.4 11.6 305 12.3
2007-10-19 06:17:46 51°14.576 2°54.733 327.3 12.2 327 11.3
2007-10-19 06:18:46 51°14.751 2°54.565 330.4 12.2 331 10.9
2007-10-19 06:19:46 51°14.931 2°54.412 330.2 12.3 333 10.4
2007-10-19 06:20:46 51°15.109 2°54.249 329.9 12.2 329 10.3
2007-10-19 06:21:46 51°15.285 2°54.076 329.8 12.5 328 10.8
2007-10-19 06:22:46 51°15.465 2°53.915 333.2 12.4 332 11.7
2007-10-19 06:23:46 51°15.646 2°53.759 333.3 12.5 331 12
2007-10-19 06:24:46 51°15.828 2°53.602 332.8 12.3 331 12.6
2007-10-19 06:25:46 51°16.009 2°53.451 333.7 12.3 332 13.1
2007-10-19 06:26:47 51°16.195 2°53.297 333.8 12.5 332 13.2
2007-10-19 06:27:46 51°16.372 2°53.149 333.6 12.2 332 13.1
2007-10-19 06:28:46 51°16.553 2°52.998 333.7 12.4 332 13
2007-10-19 06:29:46 51°16.737 2°52.844 333.2 12.6 333 11.7
2007-10-19 06:30:46 51°16.919 2°52.7 337.3 12.3 337 10.9
2007-10-19 06:31:47 51°17.119 2°52.592 347.5 12.3 348 10.6
2007-10-19 06:32:46 51°17.323 2°52.535 354 12.7 353 11.3
2007-10-19 06:33:46 51°17.532 2°52.491 353.4 12.8 351 11.7
2007-10-19 06:34:46 51°17.74 2°52.455 356.8 12.6 355 11.7
2007-10-19 06:35:46 51°17.951 2°52.454 9.4 12.8 11 11.4
2007-10-19 06:36:46 51°18.136 2°52.614 45.3 12.9 42 11.9
2007-10-19 06:37:46 51°18.266 2°52.891 61.4 13.1 55 12
2007-10-19 06:38:46 51°18.387 2°53.178 59.2 13 54 12.5
2007-10-19 06:39:46 51°18.512 2°53.462 58.7 13 54 12.2
2007-10-19 06:40:47 51°18.642 2°53.746 58.1 13 52 12.7
2007-10-19 06:41:46 51°18.771 2°54.018 56.7 13.1 53 12.4
2007-10-19 06:42:46 51°18.903 2°54.294 56.6 13 54 12.5
2007-10-19 06:43:46 51°19.036 2°54.569 56.6 12.9 54 12.3
2007-10-19 06:44:46 51°19.167 2°54.845 56.6 13 53 12.6
2007-10-19 06:45:46 51°19.296 2°55.122 60 13.1 57 12.8
2007-10-19 06:46:46 51°19.419 2°55.406 59.4 13 54 12.9
2007-10-19 06:47:46 51°19.542 2°55.688 60.1 13 55 12.8
2007-10-19 06:48:46 51°19.666 2°55.969 58.9 12.8 57 12.8
2007-10-19 06:49:47 51°19.792 2°56.254 59.8 12.9 53 12.9
2007-10-19 06:50:46 51°19.915 2°56.529 59.4 12.9 56 12.7
2007-10-19 06:51:46 51°20.041 2°56.808 59.6 13 53 13
2007-10-19 06:52:46 51°20.166 2°57.087 59.5 12.9 54 13.2
2007-10-19 06:53:46 51°20.289 2°57.366 60.1 13 55 13
2007-10-19 06:54:46 51°20.41 2°57.648 61.2 12.9 57 12.9
2007-10-19 06:55:46 51°20.52 2°57.941 62.8 12.9 58 12.8
2007-10-19 06:56:46 51°20.635 2°58.23 62.2 12.9 58 12.6
2007-10-19 06:57:46 51°20.749 2°58.52 63.1 13 57 12.5
2007-10-19 06:58:47 51°20.866 2°58.813 61.6 12.7 57 12.3
2007-10-19 06:59:47 51°20.979 2°59.104 62 12.9 59 12.5
2007-10-19 07:00:47 51°21.092 2°59.392 62.4 12.7 57 12.4
2007-10-19 07:01:46 51°21.222 2°59.652 47 12.7 36 12.5
2007-10-19 07:02:46 51°21.411 2°59.799 25.1 12.7 23 12.2
2007-10-19 07:03:46 51°21.615 2°59.864 2.6 12.4 358 12.8
2007-10-19 07:04:46 51°21.816 2°59.806 352.5 12.6 350 12.5
2007-10-19 07:05:46 51°22.026 2°59.777 358.7 12.5 355 12.6
2007-10-19 07:06:46 51°22.233 2°59.758 359.3 12.4 356 13.3
2007-10-19 07:07:46 51°22.441 2°59.726 358.5 12.4 356 14.1
2007-10-19 07:08:46 51°22.648 2°59.699 358.4 12.6 356 15.1
2007-10-19 07:09:46 51°22.856 2°59.674 358.1 12.5 355 16.3
2007-10-19 07:10:46 51°23.063 2°59.654 359.4 12.3 357 17.3
2007-10-19 07:11:46 51°23.271 2°59.636 359 12.7 356 18.6
2007-10-19 07:12:46 51°23.478 2°59.6 354.3 12.4 352 18.7
2007-10-19 07:13:46 51°23.686 2°59.561 354.8 12.7 353 18.6
2007-10-19 07:14:46 51°23.896 2°59.52 354.3 12.8 353 17.7
2007-10-19 07:15:46 51°24.105 2°59.478 354.6 12.7 353 17.3
2007-10-19 07:16:46 51°24.313 2°59.413 344.7 12.7 342 16
2007-10-19 07:17:46 51°24.516 2°59.315 345.2 12.6 344 15.9
2007-10-19 07:18:46 51°24.718 2°59.217 344.3 12.6 343 19.2
2007-10-19 07:19:46 51°24.92 2°59.118 344.7 12.3 341 19.2
2007-10-19 07:20:46 51°25.1 2°58.952 328.7 12.7 327 19.6
2007-10-19 07:21:46 51°25.277 2°58.776 329.4 12.5 328 21.2
2007-10-19 07:22:46 51°25.45 2°58.602 329.5 11.8 328 22.9
2007-10-19 07:23:46 51°25.624 2°58.429 329.4 12.4 327 25
2007-10-19 07:24:46 51°25.799 2°58.262 330.3 12.5 329 25.7
2007-10-19 07:25:46 51°25.978 2°58.092 330.7 12.6 329 24.5
2007-10-19 07:26:46 51°26.157 2°57.918 329.7 12.6 329 20.5
2007-10-19 07:27:46 51°26.341 2°57.744 329.9 12.8 329 17.5
2007-10-19 07:28:46 51°26.526 2°57.574 329.4 12.7 329 15.9
2007-10-19 07:29:46 51°26.708 2°57.4 330.2 12.8 330 18.2
2007-10-19 07:30:46 51°26.889 2°57.224 330.4 12.8 328 20.7
2007-10-19 07:31:46 51°27.071 2°57.048 330.7 12.7 329 23.4
2007-10-19 07:32:46 51°27.252 2°56.875 330.2 12.5 329 22.7
2007-10-19 07:33:46 51°27.432 2°56.701 330.6 12.7 329 23.9
2007-10-19 07:34:46 51°27.61 2°56.529 330.6 12.8 330 28.5
2007-10-19 07:35:46 51°27.788 2°56.353 330.3 12.4 328 27.6
2007-10-19 07:36:46 51°27.967 2°56.18 330.6 12.8 328 28.9
2007-10-19 07:37:46 51°28.147 2°56.006 330.2 12.8 329 27.6
2007-10-19 07:38:46 51°28.326 2°55.833 330 12.5 329 27.1
2007-10-19 07:39:46 51°28.505 2°55.658 330.2 12.7 328 23.8
2007-10-19 07:40:46 51°28.689 2°55.482 330.3 12.9 330 21.6
2007-10-19 07:41:46 51°28.87 2°55.304 330.7 12.4 329 23.2
2007-10-19 07:42:46 51°29.049 2°55.126 330.1 12.4 327 25.7
2007-10-19 07:43:46 51°29.226 2°54.949 330.2 12.5 327 26.8
2007-10-19 07:44:46 51°29.405 2°54.768 330.1 12.7 328 29
2007-10-19 07:45:46 51°29.583 2°54.587 330.4 12.6 327 29.5
2007-10-19 07:46:46 51°29.761 2°54.406 332.8 12.7 329 31.5
2007-10-19 07:47:46 51°29.944 2°54.243 334.4 12.7 331 32.4
2007-10-19 07:48:46 51°30.129 2°54.076 334.5 12.6 330 31.3
2007-10-19 07:49:46 51°30.323 2°53.94 347.2 12.8 342 33
2007-10-19 07:50:46 51°30.524 2°53.845 346.9 12.5 343 30.2
2007-10-19 07:51:46 51°30.725 2°53.745 347.2 12.9 342 24
2007-10-19 07:52:46 51°30.929 2°53.645 346.5 12.6 343 19.3
2007-10-19 07:53:46 51°31.131 2°53.548 347.5 12.8 344 20.3
2007-10-19 07:54:46 51°31.338 2°53.451 346.4 12.9 342 20.4
2007-10-19 07:55:46 51°31.545 2°53.354 346.2 12.8 343 21.8
2007-10-19 07:56:46 51°31.751 2°53.264 349.2 12.8 347 20.1
2007-10-19 07:57:46 51°31.96 2°53.183 348.4 12.9 345 23.1
2007-10-19 07:58:46 51°32.166 2°53.084 346.7 12.9 343 24.9
2007-10-19 07:59:46 51°32.369 2°52.983 346.1 12.6 343 24.5
2007-10-19 08:00:46 51°32.555 2°52.889 346.2 8.6 343 25.3
2007-10-19 08:01:46 51°32.677 2°52.837 346.3 8.2 343 26.9
2007-10-19 08:02:46 51°32.81 2°52.77 345.7 8.3 343 28.5
2007-10-19 08:03:46 51°32.94 2°52.706 345.6 8.4 342 28.4
2007-10-19 08:04:46 51°33.079 2°52.64 345.8 9.2 344 29.4
2007-10-19 08:05:46 51°33.231 2°52.568 346 9.8 343 29
2007-10-19 08:06:46 51°33.311 2°52.412 283 6.7 282 29
2007-10-19 08:07:46 51°33.343 2°52.254 298.3 6 300 32.4
2007-10-19 08:08:46 51°33.36 2°52.111 257.3 5.2 255 32.7
2007-10-19 08:09:46 51°33.318 2°51.98 247.8 5.7 243 32
2007-10-19 08:10:46 51°33.272 2°51.853 230.1 5.1 227 33.7
2007-10-19 08:11:46 51°33.216 2°51.768 221.3 4 224 31.9
2007-10-19 08:12:46 51°33.173 2°51.701 229 3.4 221 33.5
2007-10-19 08:13:46 51°33.141 2°51.642 227.9 2.4 222 33.5
2007-10-19 08:14:46 51°33.121 2°51.594 244.8 1.9 247 32
2007-10-19 08:15:46 51°33.113 2°51.563 249 1.1 258 32.3
2007-10-19 08:16:46 51°33.13 2°51.492 315.7 4.4 320 32.7
2007-10-19 08:17:46 51°33.197 2°51.516 54.6 4.6 61 34
2007-10-19 08:18:46 51°33.175 2°51.623 144 4.5 140 31.6
2007-10-19 08:19:46 51°33.129 2°51.682 148.4 2.9 143 31.6
2007-10-19 08:20:46 51°33.11 2°51.707 134.2 0.2 256 31
2007-10-19 08:21:46 51°33.11 2°51.703 128.4 0.2 198 30.8
2007-10-19 08:22:48 51°33.108 2°51.701 124.8 -999 100 -999
2007-10-19 08:23:50 51°33.106 2°51.697 121.2 0.4 204 31.1
2007-10-19 08:24:48 51°33.102 2°51.695 115.7 0.6 198 30.7
2007-10-19 08:25:46 51°33.1 2°51.695 112.7 0.2 25 31.4
2007-10-19 08:26:46 51°33.094 2°51.706 108.7 1.2 109 31
2007-10-19 08:27:46 51°33.089 2°51.751 101.5 1.5 104 32.9
2007-10-19 08:28:46 51°33.085 2°51.782 99.8 1 103 32.3
2007-10-19 08:29:46 51°33.083 2°51.804 96.1 1 126 32.5
2007-10-19 08:30:46 51°33.082 2°51.82 90.7 0.6 109 32.7
2007-10-19 08:31:46 51°33.078 2°51.829 92 0.3 123 32.4
2007-10-19 08:32:46 51°33.074 2°51.835 96.3 0.4 153 32.6
2007-10-19 08:33:46 51°33.071 2°51.846 94 0.8 112 32.3
2007-10-19 08:34:46 51°33.083 2°51.895 50.4 3.3 44 32.5
2007-10-19 08:35:46 51°33.141 2°51.886 320 4.6 313 30.3
2007-10-19 08:36:46 51°33.144 2°51.773 256.5 4.3 264 33.7
2007-10-19 08:37:46 51°33.144 2°51.68 279.5 2.8 275 30.8
2007-10-19 08:38:46 51°33.148 2°51.625 277 1.5 281 33.7
2007-10-19 08:39:46 51°33.159 2°51.579 312 2 307 33.7
2007-10-19 08:40:46 51°33.173 2°51.548 318.1 1.1 294 34.1
2007-10-19 08:41:46 51°33.178 2°51.53 312.5 0.7 273 34.1
2007-10-19 08:42:46 51°33.178 2°51.52 304.3 0.4 241 34.4
2007-10-19 08:43:46 51°33.173 2°51.515 290.6 0.4 207 34.4
2007-10-19 08:44:46 51°33.168 2°51.513 276.6 0.6 185 34.1
2007-10-19 08:45:46 51°33.163 2°51.512 265.6 0.6 174 33.9
2007-10-19 08:46:46 51°33.158 2°51.513 257.1 0.2 188 33.3
2007-10-19 08:47:46 51°33.153 2°51.514 251.5 0.4 180 33.7
2007-10-19 08:48:46 51°33.149 2°51.515 250.5 0.4 177 33.2
2007-10-19 08:49:46 51°33.144 2°51.514 252 0.2 238 33.2
2007-10-19 08:50:46 51°33.139 2°51.513 254 0.4 195 33.2
2007-10-19 08:51:46 51°33.134 2°51.51 256.9 0.3 219 32.8
2007-10-19 08:52:46 51°33.129 2°51.507 257.1 0.3 249 32.8
2007-10-19 08:53:46 51°33.124 2°51.504 256 0.4 216 31.9
2007-10-19 08:54:46 51°33.119 2°51.5 260.4 0.2 242 32.2
2007-10-19 08:55:46 51°33.115 2°51.496 264.1 0.2 226 32.2
2007-10-19 08:56:46 51°33.111 2°51.493 264.1 0.2 211 32
2007-10-19 08:57:46 51°33.106 2°51.489 262.4 0.2 288 32
2007-10-19 08:58:46 51°33.102 2°51.485 265.1 0.6 191 32.1
2007-10-19 08:59:46 51°33.097 2°51.482 264.3 0.6 182 32.2
2007-10-19 09:00:46 51°33.093 2°51.479 264.3 0.2 270 31.3
2007-10-19 09:01:46 51°33.087 2°51.476 263.5 0.3 217 31.4
2007-10-19 09:02:46 51°33.082 2°51.471 265.2 0.6 199 31.1
2007-10-19 09:03:46 51°33.079 2°51.464 267.6 0.3 273 31.7
2007-10-19 09:04:46 51°33.075 2°51.457 269.4 0.3 251 31.1
2007-10-19 09:05:46 51°33.07 2°51.449 271.5 0.7 208 29.9
2007-10-19 09:06:46 51°33.066 2°51.44 274.3 0.3 260 28.5
2007-10-19 09:07:46 51°33.062 2°51.43 280.7 0.5 224 28.6
2007-10-19 09:08:46 51°33.058 2°51.413 270 1.5 249 30.5
2007-10-19 09:09:46 51°33.034 2°51.369 210.4 2.7 198 32
2007-10-19 09:10:46 51°32.993 2°51.383 141.2 2.8 133 30.4
2007-10-19 09:11:46 51°32.986 2°51.457 75 3.1 73 31
2007-10-19 09:12:46 51°33.024 2°51.503 29.8 2.7 25 31.2
2007-10-19 09:13:46 51°33.054 2°51.522 25.6 1.5 11 30.7
2007-10-19 09:14:46 51°33.067 2°51.528 22.3 0.6 346 31.6
2007-10-19 09:15:46 51°33.071 2°51.523 13.2 0.2 267 31.5
2007-10-19 09:16:46 51°33.068 2°51.513 355.7 0.6 232 31
2007-10-19 09:17:46 51°33.061 2°51.502 339.5 0.6 217 30.5
2007-10-19 09:18:46 51°33.054 2°51.495 323.7 0.5 203 30.1
2007-10-19 09:19:46 51°33.045 2°51.492 310 0.7 186 29
2007-10-19 09:20:47 51°33.037 2°51.49 296.1 0.4 179 29.2
2007-10-19 09:21:46 51°33.031 2°51.491 285.6 0.1 153 30.7
2007-10-19 09:22:47 51°33.026 2°51.486 277.7 0.5 217 30.8
2007-10-19 09:23:46 51°33.02 2°51.479 277.5 0.4 243 29.5
2007-10-19 09:24:46 51°33.023 2°51.437 302.6 2.9 296 31.1
2007-10-19 09:25:46 51°33.067 2°51.388 -999 3.6 353 31.8
2007-10-19 09:26:46 51°33.111 2°51.424 58.6 2.5 56 31.4
2007-10-19 09:27:46 51°33.124 2°51.473 78.9 1.6 65 32
2007-10-19 09:28:46 51°33.124 2°51.506 86.3 1 97 32
2007-10-19 09:29:47 51°33.123 2°51.524 81.8 0.5 96 32.3
2007-10-19 09:30:46 51°33.121 2°51.534 81.7 0.3 149 32.1
2007-10-19 09:31:47 51°33.117 2°51.537 83.5 0.1 169 32.2
2007-10-19 09:32:46 51°33.113 2°51.535 82.1 0.3 258 32.3
2007-10-19 09:33:46 51°33.107 2°51.529 87.8 0.5 219 32.7
2007-10-19 09:34:46 51°33.101 2°51.521 98.1 0.8 208 32.4
2007-10-19 09:35:46 51°33.095 2°51.512 106.1 0.3 254 31.9
2007-10-19 09:36:46 51°33.088 2°51.501 116.3 0.7 219 31.6
2007-10-19 09:37:46 51°33.08 2°51.489 125.4 0.7 230 30.8
2007-10-19 09:38:47 51°33.072 2°51.479 125.1 0.5 217 30.3
2007-10-19 09:39:46 51°33.063 2°51.469 125.8 0.7 211 29.7
2007-10-19 09:40:46 51°33.053 2°51.462 117.5 0.4 199 28.3
2007-10-19 09:41:46 51°33.042 2°51.458 108.3 0.8 185 30.3
2007-10-19 09:42:46 51°33.031 2°51.491 98.6 2.2 112 30.8
2007-10-19 09:43:47 51°33.026 2°51.562 86.5 2.9 87 29
2007-10-19 09:44:46 51°33.027 2°51.62 79.9 1.8 86 30
2007-10-19 09:45:47 51°33.026 2°51.656 75.9 1 85 29.4
2007-10-19 09:46:46 51°33.024 2°51.676 72.5 0.5 101 29.6
2007-10-19 09:47:46 51°33.019 2°51.688 70.5 0.5 145 28.8
2007-10-19 09:48:46 51°33.022 2°51.711 45.7 1.7 50 28.9
2007-10-19 09:49:46 51°33.061 2°51.714 337.9 3.2 327 28.7
2007-10-19 09:50:46 51°33.104 2°51.647 330.6 3.5 322 30.6
2007-10-19 09:51:46 51°33.157 2°51.613 5 2.9 359 33.3
2007-10-19 09:52:46 51°33.172 2°51.625 50.8 0.4 198 31.1
2007-10-19 09:53:49 51°33.162 2°51.617 96.5 1 126 33.5
2007-10-19 09:54:48 51°33.132 2°51.657 144.6 2.5 152 31.9
2007-10-19 09:55:47 51°33.113 2°51.663 161.4 0.6 207 31.2
2007-10-19 09:56:46 51°33.102 2°51.656 170.9 0.8 193 30.2
2007-10-19 09:57:46 51°33.086 2°51.65 176.3 1.1 193 31.7
2007-10-19 09:58:47 51°33.067 2°51.642 180.7 1.2 199 31.6
2007-10-19 09:59:47 51°33.047 2°51.633 183.1 1.3 197 30.9
2007-10-19 10:00:46 51°33.026 2°51.625 184.1 1.3 193 29.3
2007-10-19 10:01:47 51°33.005 2°51.615 180.5 1.4 200 30.1
2007-10-19 10:02:46 51°32.981 2°51.608 171.6 2.1 176 31.3
2007-10-19 10:03:46 51°32.951 2°51.631 123.7 1.6 150 29.9
2007-10-19 10:04:46 51°32.935 2°51.645 106.7 0.8 149 29.5
2007-10-19 10:05:46 51°32.925 2°51.654 98.2 0.6 159 29.4
2007-10-19 10:06:46 51°32.919 2°51.674 73.4 1.3 83 30.2
2007-10-19 10:07:46 51°32.942 2°51.709 20.7 2.6 15 30.4
2007-10-19 10:08:46 51°32.997 2°51.67 333.3 4.6 323 30.9
2007-10-19 10:09:46 51°33.029 2°51.62 321.8 1.1 288 29.5
2007-10-19 10:10:46 51°33.03 2°51.593 307.4 1 255 30.7
2007-10-19 10:11:46 51°33.025 2°51.57 294.3 0.9 254 29.9
2007-10-19 10:12:47 51°33.015 2°51.549 279.7 1 233 30.5
2007-10-19 10:13:46 51°33.005 2°51.531 271 0.9 224 31.7
2007-10-19 10:14:47 51°32.994 2°51.514 270 1 213 29.6
2007-10-19 10:15:46 51°32.983 2°51.497 267.2 1.2 239 29.7
2007-10-19 10:16:46 51°32.975 2°51.456 291.3 3.3 283 30.5
2007-10-19 10:17:47 51°33.024 2°51.41 11.7 1.4 340 31.3
2007-10-19 10:18:46 51°33.025 2°51.401 50 0.4 224 31.5
2007-10-19 10:19:48 51°33.015 2°51.391 83.3 1 205 -999
2007-10-19 10:20:48 51°33.005 2°51.378 98.8 1.1 210 30.6
2007-10-19 10:21:47 51°32.993 2°51.369 106.6 0.9 187 30.1
2007-10-19 10:22:46 51°32.983 2°51.381 84.8 1.4 108 29.6
2007-10-19 10:23:46 51°33.01 2°51.416 20.1 3.1 11 30.9
2007-10-19 10:24:46 51°33.079 2°51.432 20.5 5.9 18 30.1
2007-10-19 10:25:46 51°33.215 2°51.538 31.5 11 27 31.6
2007-10-19 10:26:46 51°33.403 2°51.629 22.9 12 22 34.2
2007-10-19 10:27:46 51°33.58 2°51.733 20.3 10.3 15 33.3
2007-10-19 10:28:46 51°33.704 2°51.867 34.5 7.2 37 33.9
2007-10-19 10:29:46 51°33.776 2°51.958 40.6 4.2 41 33.6
2007-10-19 10:30:46 51°33.833 2°52.028 40.2 4.9 40 32.9
2007-10-19 10:31:46 51°33.9 2°52.109 39.9 5.2 38 32.6
2007-10-19 10:32:46 51°33.969 2°52.191 38.4 5 33 30.4
2007-10-19 10:33:46 51°34.034 2°52.272 39.5 4.9 39 33.5
2007-10-19 10:34:46 51°34.091 2°52.345 43.6 3.6 41 34.4
2007-10-19 10:35:46 51°34.134 2°52.399 40.4 2.6 32 32.6
2007-10-19 10:36:46 51°34.162 2°52.436 43.9 2.1 47 29.9
2007-10-19 10:37:46 51°34.187 2°52.467 40.6 1.2 40 32.9
2007-10-19 10:38:46 51°34.201 2°52.503 67.8 1.8 78 34.7
2007-10-19 10:39:46 51°34.217 2°52.54 37 1.7 27 31.3
2007-10-19 10:40:46 51°34.239 2°52.546 15.9 1.1 345 33.7
2007-10-19 10:41:46 51°34.257 2°52.518 328 2.5 297 33.8
2007-10-19 10:42:46 51°34.254 2°52.432 251.1 3.9 240 34.4
2007-10-19 10:43:46 51°34.198 2°52.388 171.5 3.8 174 30.3
2007-10-19 10:44:46 51°34.158 2°52.407 134.3 1.6 166 30.7
2007-10-19 10:45:46 51°34.137 2°52.404 131.5 1.1 249 31.2
2007-10-19 10:46:50 51°34.128 2°52.371 143.8 1.2 240 -999
2007-10-19 10:47:48 51°34.115 2°52.348 147.7 1.2 217 34.9
2007-10-19 10:48:47 51°34.098 2°52.331 138.2 1 205 34.7
2007-10-19 10:49:46 51°34.081 2°52.315 129.5 1.2 207 35
2007-10-19 10:50:46 51°34.064 2°52.3 124.8 0.9 204 34.8
2007-10-19 10:51:46 51°34.046 2°52.287 119.4 1.2 203 34.2
2007-10-19 10:52:46 51°34.029 2°52.275 114.4 1 202 33.3
2007-10-19 10:53:46 51°34.011 2°52.264 113.5 0.8 199 33.3
2007-10-19 10:54:46 51°33.994 2°52.254 110.4 0.9 180 33
2007-10-19 10:55:46 51°33.958 2°52.311 126.2 5.9 130 32.4
2007-10-19 10:56:47 51°33.818 2°52.37 180.7 11.3 184 33.1
2007-10-19 10:57:46 51°33.62 2°52.279 195.9 13 196 31
2007-10-19 10:58:46 51°33.408 2°52.232 182.5 13.3 182 26.9
2007-10-19 10:59:46 51°33.193 2°52.209 184.2 12.7 189 27.2
2007-10-19 11:00:46 51°32.977 2°52.19 182.1 13.5 181 30.3
2007-10-19 11:01:46 51°32.765 2°52.184 182 12.1 180 29
2007-10-19 11:02:46 51°32.55 2°52.181 180.9 13 180 27.6
2007-10-19 11:03:46 51°32.337 2°52.176 180.1 12.8 180 28.1
2007-10-19 11:04:46 51°32.121 2°52.17 181.6 13 186 27.1
2007-10-19 11:05:46 51°31.904 2°52.16 181.8 13.6 182 24.9
2007-10-19 11:06:46 51°31.689 2°52.144 181.6 13 182 24.2
2007-10-19 11:07:46 51°31.474 2°52.133 180 12.7 179 22.7
2007-10-19 11:08:46 51°31.256 2°52.114 181.7 13.2 183 20.2
2007-10-19 11:09:46 51°31.039 2°52.098 180.6 13.1 188 19.5
2007-10-19 11:10:46 51°30.822 2°52.082 181 13.4 182 19.6
2007-10-19 11:11:46 51°30.607 2°52.06 179.5 12.2 183 18.1
2007-10-19 11:12:46 51°30.392 2°52.05 178.7 12.9 181 24.8
2007-10-19 11:13:46 51°30.177 2°52.038 179.7 13.2 182 28
2007-10-19 11:14:46 51°29.961 2°52.02 178.9 13 183 29.8
2007-10-19 11:15:46 51°29.743 2°52.002 180.3 13 186 29.5
2007-10-19 11:16:46 51°29.525 2°51.988 179.1 13.2 181 29.3
2007-10-19 11:17:46 51°29.308 2°51.981 177.5 13 177 30.1
2007-10-19 11:18:46 51°29.091 2°51.972 179.4 13.5 184 30.3
2007-10-19 11:19:46 51°28.879 2°51.969 178.2 12.6 181 29.1
2007-10-19 11:20:46 51°28.662 2°51.962 177.7 13.2 182 27.9
2007-10-19 11:21:46 51°28.446 2°51.969 173.3 12.7 179 26.5
2007-10-19 11:22:46 51°28.232 2°51.973 179.2 12.9 181 25.1
2007-10-19 11:23:46 51°28.018 2°51.964 177.7 12.7 181 22
2007-10-19 11:24:46 51°27.803 2°51.965 177.8 12.9 179 18.7
2007-10-19 11:25:46 51°27.585 2°51.961 179.2 13.5 183 18.2
2007-10-19 11:26:46 51°27.369 2°51.958 177.6 13 184 20.7
2007-10-19 11:27:46 51°27.152 2°51.95 177.8 13 182 19.8
2007-10-19 11:28:46 51°26.933 2°51.946 174.8 13 180 24.7
2007-10-19 11:29:46 51°26.715 2°51.947 175.2 13 183 25.7
2007-10-19 11:30:46 51°26.499 2°51.946 174.9 12.8 177 24.4
2007-10-19 11:31:46 51°26.282 2°51.941 176.4 12.7 179 24.7
2007-10-19 11:32:46 51°26.066 2°51.938 175.4 12.6 182 25.4
2007-10-19 11:33:46 51°25.851 2°51.936 178.1 12.9 181 27
2007-10-19 11:34:46 51°25.637 2°51.937 178.3 13.2 179 28.3
2007-10-19 11:35:46 51°25.422 2°51.94 176.5 12.7 181 25.4
2007-10-19 11:36:46 51°25.205 2°51.934 178.4 12.8 180 22.8
2007-10-19 11:37:46 51°24.987 2°51.933 175.4 13.4 177 21.5
2007-10-19 11:38:46 51°24.77 2°51.932 177 13 181 21
2007-10-19 11:39:46 51°24.551 2°51.93 176.3 13.3 182 20.3
2007-10-19 11:40:46 51°24.335 2°51.93 176.8 12.5 176 17.5
2007-10-19 11:41:46 51°24.117 2°51.94 175.3 12.6 178 17
2007-10-19 11:42:46 51°23.897 2°51.943 176.9 13.3 179 16.7
2007-10-19 11:43:46 51°23.677 2°51.952 175.3 13.1 180 14.3
2007-10-19 11:44:46 51°23.455 2°51.958 176.2 12.8 181 15.8
2007-10-19 11:45:46 51°23.232 2°51.965 177.5 13.8 183 18.9
2007-10-19 11:46:46 51°23.009 2°51.978 174.1 13 177 22.6
2007-10-19 11:47:46 51°22.788 2°51.991 175.6 13.4 180 22.2
2007-10-19 11:48:46 51°22.568 2°51.999 175 13.1 174 22.4
2007-10-19 11:49:46 51°22.353 2°52.012 174.6 13.2 176 22.7
2007-10-19 11:50:46 51°22.135 2°52.025 175.7 13.5 178 22.9
2007-10-19 11:51:46 51°21.919 2°52.038 174.9 13 180 23.4
2007-10-19 11:52:46 51°21.702 2°52.05 173.9 13.4 179 22.3
2007-10-19 11:53:46 51°21.484 2°52.061 175 13 179 20.2
2007-10-19 11:54:46 51°21.266 2°52.074 176.9 12.9 178 17.6
2007-10-19 11:55:46 51°21.046 2°52.082 174.8 12.9 178 16
2007-10-19 11:56:46 51°20.83 2°52.092 174.1 12.9 175 13.6
2007-10-19 11:57:46 51°20.613 2°52.101 176.3 13.1 178 13
2007-10-19 11:58:46 51°20.395 2°52.11 174.6 13.3 176 13.7
2007-10-19 11:59:46 51°20.176 2°52.115 176.6 13.4 182 14.4
2007-10-19 12:00:46 51°19.959 2°52.126 174.9 13.2 178 15.3
2007-10-19 12:01:46 51°19.743 2°52.133 173.5 13.4 177 15.4
2007-10-19 12:02:46 51°19.524 2°52.148 176 12.8 178 15
2007-10-19 12:03:46 51°19.308 2°52.158 176.6 12.9 180 14.5
2007-10-19 12:04:46 51°19.09 2°52.169 174.8 13.2 178 13.6
2007-10-19 12:05:46 51°18.873 2°52.181 174.5 12.3 179 12.6
2007-10-19 12:06:46 51°18.652 2°52.191 175.8 13.5 179 11.5
2007-10-19 12:07:46 51°18.434 2°52.206 174.5 13 178 10.8
2007-10-19 12:08:46 51°18.218 2°52.216 176.7 12.3 179 10.5
2007-10-19 12:09:46 51°18 2°52.225 175.4 13.1 180 10
2007-10-19 12:10:46 51°17.782 2°52.236 174.9 12.7 176 9.8
2007-10-19 12:11:46 51°17.56 2°52.244 178 12.9 180 9.9
2007-10-19 12:12:46 51°17.339 2°52.271 173.5 12.7 174 9.9
2007-10-19 12:13:46 51°17.127 2°52.345 160.9 13 164 9.5
2007-10-19 12:14:46 51°16.925 2°52.468 156 13.5 159 9.1
2007-10-19 12:15:46 51°16.741 2°52.633 147.1 12.9 148 9.1
2007-10-19 12:16:46 51°16.557 2°52.804 145 12.2 148 11
2007-10-19 12:17:46 51°16.376 2°52.972 149.8 12.9 153 11
2007-10-19 12:18:46 51°16.19 2°53.13 145.8 12 151 11.2
2007-10-19 12:19:46 51°16.003 2°53.285 148.7 12.7 152 11
2007-10-19 12:20:46 51°15.819 2°53.438 150.6 12.8 151 10.5
2007-10-19 12:21:46 51°15.64 2°53.601 144.4 11.8 153 10.2
2007-10-19 12:22:46 51°15.464 2°53.763 144.9 13 149 9.6
2007-10-19 12:23:46 51°15.285 2°53.93 144.9 12.4 151 9
2007-10-19 12:24:46 51°15.113 2°54.102 146.4 12.1 150 8.6
2007-10-19 12:25:46 51°14.938 2°54.273 144.4 12.1 146 8.2
2007-10-19 12:26:46 51°14.768 2°54.457 142.5 12.3 148 9
2007-10-19 12:27:46 51°14.604 2°54.657 136.1 12.1 137 9.2
2007-10-19 12:28:46 51°14.462 2°54.884 129.4 11.8 134 10
2007-10-19 12:29:46 51°14.338 2°55.131 128.6 10.8 129 10
2007-10-19 12:30:47 51°14.234 2°55.303 139.4 8.1 139 -999
2007-10-19 12:31:50 51°14.125 2°55.411 155.5 5.9 155 -999
2007-10-19 12:32:48 51°14.045 2°55.469 155.8 5.3 155 9.7
2007-10-19 12:33:47 51°13.968 2°55.528 155.3 5.2 154 10
2007-10-19 12:34:46 51°13.867 2°55.602 156.2 7.2 157 10
2007-10-19 12:35:46 51°13.765 2°55.692 148.1 6.9 144 10.2
2007-10-19 12:36:50 51°13.695 2°55.805 126.2 4.9 125 -999
2007-10-19 12:37:50 51°13.652 2°55.905 124.4 4.4 123 -999